MSR675 HECA-OEJN
Flight info
| Callsign | MSR675 |
|---|---|
| Flight time | 1h 44m |
| Altitude | 41000 |
| Route | CVO A727 NABED T55 DEDLU M999 MUVOL |
| Aircraft | A359/H-SDE2E3GHIJ1J3J4J5LM1ORWXY/LB1D1 |
Departure
| Time | 2026-05-05 11:39 |
|---|---|
| Airport | Cairo International Airport (HECA) |
Arrival
| Time | 2026-05-05 13:23 |
|---|---|
| Airport | King Abdulaziz International Airport (OEJN) |
| Time | Latitude | Longitude | Altitude | Speed | Heading |
|---|---|---|---|---|---|
| 2026-05-05 11:13 | 30.10809 | 31.39691 | 390 ft | 0 kts | 255° |
| 2026-05-05 11:30 | 30.10810 | 31.39697 | 390 ft | 2 kts | 252° |
| 2026-05-05 11:30 | 30.10815 | 31.39713 | 391 ft | 1 kts | 253° |
| 2026-05-05 11:31 | 30.10818 | 31.39725 | 391 ft | 2 kts | 249° |
| 2026-05-05 11:31 | 30.10825 | 31.39739 | 391 ft | 2 kts | 224° |
| 2026-05-05 11:31 | 30.10837 | 31.39750 | 391 ft | 2 kts | 206° |
| 2026-05-05 11:31 | 30.10852 | 31.39756 | 390 ft | 2 kts | 187° |
| 2026-05-05 11:32 | 30.10866 | 31.39756 | 390 ft | 2 kts | 169° |
| 2026-05-05 11:32 | 30.10873 | 31.39755 | 390 ft | 1 kts | 164° |
| 2026-05-05 11:32 | 30.10874 | 31.39754 | 390 ft | 0 kts | 164° |
| 2026-05-05 11:34 | 30.10872 | 31.39755 | 390 ft | 1 kts | 164° |
| 2026-05-05 11:34 | 30.10854 | 31.39760 | 390 ft | 4 kts | 164° |
| 2026-05-05 11:35 | 30.10809 | 31.39775 | 390 ft | 8 kts | 165° |
| 2026-05-05 11:35 | 30.10739 | 31.39796 | 390 ft | 12 kts | 165° |
| 2026-05-05 11:35 | 30.10645 | 31.39823 | 391 ft | 14 kts | 165° |
| 2026-05-05 11:35 | 30.10549 | 31.39853 | 391 ft | 12 kts | 165° |
| 2026-05-05 11:36 | 30.10469 | 31.39876 | 391 ft | 9 kts | 171° |
| 2026-05-05 11:36 | 30.10408 | 31.39847 | 391 ft | 10 kts | 223° |
| 2026-05-05 11:36 | 30.10354 | 31.39782 | 391 ft | 12 kts | 229° |
| 2026-05-05 11:36 | 30.10293 | 31.39700 | 391 ft | 14 kts | 230° |
| 2026-05-05 11:37 | 30.10226 | 31.39610 | 391 ft | 13 kts | 228° |
| 2026-05-05 11:37 | 30.10171 | 31.39570 | 391 ft | 9 kts | 190° |
| 2026-05-05 11:37 | 30.10113 | 31.39600 | 391 ft | 10 kts | 137° |
| 2026-05-05 11:37 | 30.10054 | 31.39663 | 391 ft | 12 kts | 135° |
| 2026-05-05 11:38 | 30.10006 | 31.39754 | 391 ft | 14 kts | 102° |
| 2026-05-05 11:38 | 30.10001 | 31.39855 | 391 ft | 9 kts | 78° |
| 2026-05-05 11:38 | 30.10036 | 31.39915 | 391 ft | 9 kts | 48° |
| 2026-05-05 11:38 | 30.10093 | 31.39989 | 391 ft | 20 kts | 48° |
| 2026-05-05 11:39 | 30.10371 | 31.40354 | 391 ft | 98 kts | 48° |
| 2026-05-05 11:39 | 30.10986 | 31.41167 | 392 ft | 163 kts | 48° |
| 2026-05-05 11:39 | 30.11787 | 31.42218 | 957 ft | 173 kts | 45° |
| 2026-05-05 11:39 | 30.12512 | 31.43306 | 1780 ft | 172 kts | 63° |
| 2026-05-05 11:40 | 30.12589 | 31.44675 | 2462 ft | 181 kts | 105° |
| 2026-05-05 11:40 | 30.11828 | 31.45873 | 3018 ft | 193 kts | 150° |
| 2026-05-05 11:40 | 30.10537 | 31.46236 | 3632 ft | 195 kts | 179° |
| 2026-05-05 11:40 | 30.09133 | 31.46379 | 4060 ft | 210 kts | 176° |
| 2026-05-05 11:41 | 30.07615 | 31.46575 | 4506 ft | 226 kts | 175° |
| 2026-05-05 11:41 | 30.05955 | 31.46802 | 5008 ft | 243 kts | 175° |
| 2026-05-05 11:41 | 30.04218 | 31.47043 | 5524 ft | 259 kts | 174° |
| 2026-05-05 11:41 | 30.02349 | 31.47305 | 6047 ft | 275 kts | 174° |
| 2026-05-05 11:42 | 30.00396 | 31.47580 | 6652 ft | 288 kts | 174° |
| 2026-05-05 11:42 | 29.98407 | 31.47862 | 7437 ft | 293 kts | 174° |
| 2026-05-05 11:42 | 29.96368 | 31.48150 | 8274 ft | 297 kts | 175° |
| 2026-05-05 11:42 | 29.94315 | 31.48439 | 9093 ft | 301 kts | 175° |
| 2026-05-05 11:43 | 29.92223 | 31.48733 | 9913 ft | 306 kts | 175° |
| 2026-05-05 11:43 | 29.90087 | 31.49033 | 10661 ft | 313 kts | 176° |
| 2026-05-05 11:43 | 29.87896 | 31.49337 | 11150 ft | 330 kts | 176° |
| 2026-05-05 11:43 | 29.85551 | 31.49659 | 11628 ft | 346 kts | 176° |
| 2026-05-05 11:44 | 29.83089 | 31.49999 | 12096 ft | 362 kts | 177° |
| 2026-05-05 11:44 | 29.80579 | 31.50349 | 12755 ft | 370 kts | 177° |
| 2026-05-05 11:44 | 29.77981 | 31.50715 | 13487 ft | 376 kts | 178° |
| 2026-05-05 11:44 | 29.75358 | 31.51082 | 14245 ft | 380 kts | 178° |
| 2026-05-05 11:45 | 29.72757 | 31.51445 | 14971 ft | 385 kts | 178° |
| 2026-05-05 11:45 | 29.70060 | 31.51946 | 15703 ft | 391 kts | 174° |
| 2026-05-05 11:45 | 29.67415 | 31.52654 | 16412 ft | 397 kts | 170° |
| 2026-05-05 11:45 | 29.64749 | 31.53513 | 17098 ft | 402 kts | 169° |
| 2026-05-05 11:46 | 29.62029 | 31.54410 | 17755 ft | 407 kts | 169° |
| 2026-05-05 11:46 | 29.59277 | 31.55318 | 18414 ft | 411 kts | 170° |
| 2026-05-05 11:46 | 29.56537 | 31.56221 | 19069 ft | 415 kts | 170° |
| 2026-05-05 11:46 | 29.53772 | 31.57129 | 19714 ft | 418 kts | 170° |
| 2026-05-05 11:47 | 29.50959 | 31.58050 | 20352 ft | 422 kts | 171° |
| 2026-05-05 11:47 | 29.48128 | 31.58975 | 20957 ft | 426 kts | 171° |
| 2026-05-05 11:47 | 29.45263 | 31.59911 | 21564 ft | 430 kts | 171° |
| 2026-05-05 11:47 | 29.42362 | 31.60857 | 22187 ft | 433 kts | 171° |
| 2026-05-05 11:48 | 29.36524 | 31.62759 | 23353 ft | 440 kts | 171° |
| 2026-05-05 11:48 | 29.33562 | 31.63722 | 23943 ft | 443 kts | 171° |
| 2026-05-05 11:48 | 29.30585 | 31.64691 | 24526 ft | 446 kts | 171° |
| 2026-05-05 11:49 | 29.27600 | 31.65666 | 25064 ft | 449 kts | 172° |
| 2026-05-05 11:49 | 29.24618 | 31.66650 | 25597 ft | 451 kts | 172° |
| 2026-05-05 11:49 | 29.21564 | 31.67655 | 26100 ft | 454 kts | 172° |
| 2026-05-05 11:49 | 29.18518 | 31.68651 | 26581 ft | 456 kts | 172° |
| 2026-05-05 11:50 | 29.15488 | 31.69637 | 27057 ft | 458 kts | 172° |
| 2026-05-05 11:50 | 29.12402 | 31.70639 | 27503 ft | 460 kts | 172° |
| 2026-05-05 11:50 | 29.09309 | 31.71640 | 27930 ft | 463 kts | 172° |
| 2026-05-05 11:50 | 29.06191 | 31.72648 | 28338 ft | 465 kts | 172° |
| 2026-05-05 11:51 | 29.03091 | 31.73649 | 28745 ft | 467 kts | 172° |
| 2026-05-05 11:51 | 28.99941 | 31.74667 | 29157 ft | 468 kts | 172° |
| 2026-05-05 11:51 | 28.96830 | 31.75670 | 29526 ft | 470 kts | 172° |
| 2026-05-05 11:51 | 28.93659 | 31.76685 | 29888 ft | 472 kts | 172° |
| 2026-05-05 11:52 | 28.90512 | 31.77690 | 30204 ft | 474 kts | 172° |
| 2026-05-05 11:52 | 28.87302 | 31.78710 | 30539 ft | 476 kts | 172° |
| 2026-05-05 11:52 | 28.84098 | 31.79727 | 30866 ft | 477 kts | 172° |
| 2026-05-05 11:52 | 28.80930 | 31.80732 | 31209 ft | 478 kts | 172° |
| 2026-05-05 11:53 | 28.77717 | 31.81749 | 31512 ft | 479 kts | 172° |
| 2026-05-05 11:53 | 28.74476 | 31.82776 | 31797 ft | 481 kts | 172° |
| 2026-05-05 11:53 | 28.71262 | 31.83793 | 32082 ft | 482 kts | 172° |
| 2026-05-05 11:53 | 28.68020 | 31.84820 | 32352 ft | 484 kts | 172° |
| 2026-05-05 11:54 | 28.64756 | 31.85854 | 32633 ft | 485 kts | 172° |
| 2026-05-05 11:54 | 28.61507 | 31.86881 | 32888 ft | 487 kts | 172° |
| 2026-05-05 11:54 | 28.58246 | 31.87913 | 33128 ft | 488 kts | 172° |
| 2026-05-05 11:54 | 28.54969 | 31.88947 | 33355 ft | 490 kts | 172° |
| 2026-05-05 11:55 | 28.51650 | 31.89995 | 33642 ft | 491 kts | 172° |
| 2026-05-05 11:55 | 28.48391 | 31.91025 | 33981 ft | 490 kts | 173° |
| 2026-05-05 11:55 | 28.45098 | 31.92066 | 34354 ft | 488 kts | 173° |
| 2026-05-05 11:55 | 28.41862 | 31.93087 | 34707 ft | 486 kts | 173° |
| 2026-05-05 11:56 | 28.38600 | 31.94114 | 35092 ft | 484 kts | 173° |
| 2026-05-05 11:56 | 28.35332 | 31.95142 | 35407 ft | 484 kts | 173° |
| 2026-05-05 11:56 | 28.32108 | 31.96157 | 35710 ft | 483 kts | 173° |
| 2026-05-05 11:56 | 28.28862 | 31.97176 | 36031 ft | 482 kts | 173° |
| 2026-05-05 11:57 | 28.25650 | 31.98185 | 36306 ft | 481 kts | 172° |
| 2026-05-05 11:57 | 28.22437 | 31.99482 | 36512 ft | 493 kts | 162° |
| 2026-05-05 11:57 | 28.19440 | 32.01431 | 36765 ft | 504 kts | 152° |
| 2026-05-05 11:57 | 28.16684 | 32.03960 | 37042 ft | 511 kts | 145° |
| 2026-05-05 11:58 | 28.14101 | 32.06643 | 37339 ft | 511 kts | 144° |
| 2026-05-05 11:58 | 28.11491 | 32.09405 | 37535 ft | 512 kts | 143° |
| 2026-05-05 11:58 | 28.08891 | 32.12153 | 37724 ft | 512 kts | 144° |
| 2026-05-05 11:58 | 28.06260 | 32.14915 | 37940 ft | 512 kts | 144° |
| 2026-05-05 11:59 | 28.03658 | 32.17627 | 38140 ft | 512 kts | 144° |
| 2026-05-05 11:59 | 28.01037 | 32.20347 | 38354 ft | 512 kts | 144° |
| 2026-05-05 11:59 | 27.98406 | 32.23067 | 38575 ft | 511 kts | 144° |
| 2026-05-05 11:59 | 27.95785 | 32.25771 | 38768 ft | 511 kts | 144° |
| 2026-05-05 12:00 | 27.93181 | 32.28453 | 38959 ft | 511 kts | 144° |
| 2026-05-05 12:00 | 27.90540 | 32.31172 | 39148 ft | 511 kts | 144° |
| 2026-05-05 12:00 | 27.87928 | 32.33852 | 39322 ft | 511 kts | 145° |
| 2026-05-05 12:00 | 27.85277 | 32.36560 | 39479 ft | 511 kts | 145° |
| 2026-05-05 12:01 | 27.82651 | 32.39242 | 39616 ft | 512 kts | 145° |
| 2026-05-05 12:01 | 27.80013 | 32.41938 | 39746 ft | 513 kts | 145° |
| 2026-05-05 12:01 | 27.77358 | 32.44655 | 39896 ft | 513 kts | 145° |
| 2026-05-05 12:01 | 27.74721 | 32.47353 | 40020 ft | 514 kts | 145° |
| 2026-05-05 12:02 | 27.72077 | 32.50060 | 40138 ft | 515 kts | 145° |
| 2026-05-05 12:02 | 27.69438 | 32.52760 | 40273 ft | 515 kts | 145° |
| 2026-05-05 12:02 | 27.66782 | 32.55476 | 40401 ft | 515 kts | 145° |
| 2026-05-05 12:02 | 27.64130 | 32.58185 | 40518 ft | 516 kts | 145° |
| 2026-05-05 12:03 | 27.61473 | 32.60898 | 40631 ft | 516 kts | 145° |
| 2026-05-05 12:03 | 27.58804 | 32.63621 | 40745 ft | 517 kts | 145° |
| 2026-05-05 12:03 | 27.53496 | 32.69052 | 40897 ft | 518 kts | 146° |
| 2026-05-05 12:04 | 27.48177 | 32.74500 | 41064 ft | 518 kts | 146° |
| 2026-05-05 12:04 | 27.42847 | 32.79932 | 41068 ft | 518 kts | 146° |
| 2026-05-05 12:05 | 27.37493 | 32.85372 | 41075 ft | 518 kts | 146° |
| 2026-05-05 12:05 | 27.32177 | 32.90763 | 41078 ft | 518 kts | 146° |
| 2026-05-05 12:06 | 27.26828 | 32.96178 | 41089 ft | 517 kts | 146° |
| 2026-05-05 12:06 | 27.21485 | 33.01581 | 41086 ft | 517 kts | 146° |
| 2026-05-05 12:07 | 27.16140 | 33.06977 | 41089 ft | 517 kts | 146° |
| 2026-05-05 12:07 | 27.10805 | 33.12358 | 41085 ft | 516 kts | 146° |
| 2026-05-05 12:08 | 27.05495 | 33.17707 | 41094 ft | 515 kts | 146° |
| 2026-05-05 12:08 | 27.00172 | 33.23056 | 41095 ft | 518 kts | 146° |
| 2026-05-05 12:09 | 26.94783 | 33.28467 | 41099 ft | 520 kts | 146° |
| 2026-05-05 12:09 | 26.89383 | 33.33881 | 41087 ft | 523 kts | 146° |
| 2026-05-05 12:10 | 26.83947 | 33.39301 | 41078 ft | 525 kts | 146° |
| 2026-05-05 12:10 | 26.78481 | 33.44750 | 41076 ft | 526 kts | 146° |
| 2026-05-05 12:11 | 26.73034 | 33.50185 | 41070 ft | 528 kts | 146° |
| 2026-05-05 12:11 | 26.67545 | 33.55660 | 41065 ft | 530 kts | 146° |
| 2026-05-05 12:12 | 26.62045 | 33.61139 | 41049 ft | 531 kts | 146° |
| 2026-05-05 12:12 | 26.56505 | 33.66656 | 41039 ft | 532 kts | 146° |
| 2026-05-05 12:13 | 26.51031 | 33.72135 | 41040 ft | 532 kts | 146° |
| 2026-05-05 12:13 | 26.45504 | 33.77642 | 41036 ft | 531 kts | 146° |
| 2026-05-05 12:14 | 26.39982 | 33.83122 | 41029 ft | 531 kts | 146° |
| 2026-05-05 12:14 | 26.34484 | 33.88562 | 41015 ft | 532 kts | 146° |
| 2026-05-05 12:15 | 26.28956 | 33.94029 | 41006 ft | 531 kts | 146° |
| 2026-05-05 12:15 | 26.23449 | 33.99462 | 40991 ft | 531 kts | 146° |
| 2026-05-05 12:16 | 26.17892 | 34.04940 | 40994 ft | 532 kts | 146° |
| 2026-05-05 12:16 | 26.12391 | 34.10358 | 40984 ft | 531 kts | 146° |
| 2026-05-05 12:17 | 26.06846 | 34.15810 | 40989 ft | 531 kts | 146° |
| 2026-05-05 12:17 | 26.01307 | 34.21248 | 40979 ft | 531 kts | 146° |
| 2026-05-05 12:18 | 25.95775 | 34.26672 | 40985 ft | 531 kts | 146° |
| 2026-05-05 12:18 | 25.90276 | 34.32056 | 40992 ft | 531 kts | 146° |
| 2026-05-05 12:19 | 25.84729 | 34.37461 | 40993 ft | 531 kts | 146° |
| 2026-05-05 12:19 | 25.79182 | 34.42857 | 40993 ft | 531 kts | 146° |
| 2026-05-05 12:20 | 25.73612 | 34.48285 | 40988 ft | 531 kts | 147° |
| 2026-05-05 12:20 | 25.68086 | 34.53665 | 40989 ft | 532 kts | 147° |
| 2026-05-05 12:21 | 25.62511 | 34.59089 | 41002 ft | 532 kts | 147° |
| 2026-05-05 12:21 | 25.56965 | 34.64480 | 40999 ft | 532 kts | 147° |
| 2026-05-05 12:22 | 25.51433 | 34.69875 | 40997 ft | 532 kts | 147° |
| 2026-05-05 12:22 | 25.45886 | 34.75283 | 40994 ft | 530 kts | 147° |
| 2026-05-05 12:23 | 25.40369 | 34.80632 | 40987 ft | 531 kts | 147° |
| 2026-05-05 12:23 | 25.34826 | 34.85991 | 40988 ft | 529 kts | 147° |
| 2026-05-05 12:24 | 25.29262 | 34.91365 | 40989 ft | 529 kts | 148° |
| 2026-05-05 12:24 | 25.23716 | 34.96707 | 40992 ft | 531 kts | 148° |
| 2026-05-05 12:25 | 25.18166 | 35.02051 | 40986 ft | 530 kts | 147° |
| 2026-05-05 12:25 | 25.12638 | 35.07367 | 40986 ft | 529 kts | 147° |
| 2026-05-05 12:26 | 25.07159 | 35.12642 | 40990 ft | 513 kts | 147° |
| 2026-05-05 12:26 | 25.01977 | 35.18086 | 40990 ft | 512 kts | 144° |
| 2026-05-05 12:27 | 24.96897 | 35.23554 | 40983 ft | 513 kts | 144° |
| 2026-05-05 12:27 | 24.91805 | 35.29026 | 40978 ft | 513 kts | 144° |
| 2026-05-05 12:28 | 24.86689 | 35.34502 | 40977 ft | 510 kts | 144° |
| 2026-05-05 12:28 | 24.81605 | 35.39915 | 40978 ft | 511 kts | 144° |
| 2026-05-05 12:29 | 24.76501 | 35.45359 | 40972 ft | 511 kts | 144° |
| 2026-05-05 12:29 | 24.71393 | 35.50808 | 40975 ft | 511 kts | 144° |
| 2026-05-05 12:30 | 24.66300 | 35.56239 | 40973 ft | 510 kts | 144° |
| 2026-05-05 12:30 | 24.61238 | 35.61631 | 40970 ft | 510 kts | 144° |
| 2026-05-05 12:31 | 24.56158 | 35.67042 | 40962 ft | 508 kts | 144° |
| 2026-05-05 12:31 | 24.51089 | 35.72464 | 40970 ft | 509 kts | 144° |
| 2026-05-05 12:32 | 24.46020 | 35.77862 | 40966 ft | 508 kts | 144° |
| 2026-05-05 12:32 | 24.40953 | 35.83241 | 40968 ft | 507 kts | 144° |
| 2026-05-05 12:33 | 24.35869 | 35.88625 | 40971 ft | 507 kts | 144° |
| 2026-05-05 12:33 | 24.30796 | 35.93991 | 40969 ft | 506 kts | 144° |
| 2026-05-05 12:34 | 24.25759 | 35.99310 | 40963 ft | 506 kts | 144° |
| 2026-05-05 12:34 | 24.20688 | 36.04660 | 40970 ft | 507 kts | 144° |
| 2026-05-05 12:35 | 24.15592 | 36.10033 | 40964 ft | 506 kts | 144° |
| 2026-05-05 12:35 | 24.10533 | 36.15357 | 40965 ft | 506 kts | 144° |
| 2026-05-05 12:36 | 24.05466 | 36.20684 | 40962 ft | 506 kts | 144° |
| 2026-05-05 12:36 | 24.00405 | 36.25999 | 40963 ft | 505 kts | 144° |
| 2026-05-05 12:37 | 23.95352 | 36.31300 | 40959 ft | 504 kts | 144° |
| 2026-05-05 12:37 | 23.90309 | 36.36585 | 40964 ft | 505 kts | 144° |
| 2026-05-05 12:38 | 23.85229 | 36.41878 | 40958 ft | 504 kts | 144° |
| 2026-05-05 12:38 | 23.80134 | 36.47182 | 40960 ft | 505 kts | 144° |
| 2026-05-05 12:39 | 23.75066 | 36.52467 | 40961 ft | 505 kts | 144° |
| 2026-05-05 12:39 | 23.70005 | 36.57745 | 40959 ft | 504 kts | 144° |
| 2026-05-05 12:40 | 23.64918 | 36.63044 | 40960 ft | 504 kts | 144° |
| 2026-05-05 12:40 | 23.59850 | 36.68332 | 40960 ft | 505 kts | 144° |
| 2026-05-05 12:41 | 23.54821 | 36.73594 | 40955 ft | 505 kts | 144° |
| 2026-05-05 12:41 | 23.49736 | 36.78890 | 40959 ft | 505 kts | 144° |
| 2026-05-05 12:42 | 23.44665 | 36.84153 | 40958 ft | 505 kts | 145° |
| 2026-05-05 12:42 | 23.39592 | 36.89410 | 40956 ft | 504 kts | 144° |
| 2026-05-05 12:43 | 23.34480 | 36.94699 | 40960 ft | 505 kts | 144° |
| 2026-05-05 12:43 | 23.29385 | 36.99964 | 40955 ft | 505 kts | 144° |
| 2026-05-05 12:44 | 23.24306 | 37.05210 | 40960 ft | 505 kts | 144° |
| 2026-05-05 12:44 | 23.19199 | 37.10475 | 40956 ft | 506 kts | 144° |
| 2026-05-05 12:45 | 23.14126 | 37.15702 | 40956 ft | 506 kts | 144° |
| 2026-05-05 12:45 | 23.09013 | 37.20966 | 40951 ft | 505 kts | 144° |
| 2026-05-05 12:46 | 23.03921 | 37.26200 | 40940 ft | 505 kts | 144° |
| 2026-05-05 12:46 | 23.01366 | 37.28824 | 40782 ft | 507 kts | 144° |
| 2026-05-05 12:46 | 22.98805 | 37.31455 | 40447 ft | 503 kts | 144° |
| 2026-05-05 12:47 | 22.96303 | 37.34027 | 40035 ft | 498 kts | 144° |
| 2026-05-05 12:47 | 22.93784 | 37.36615 | 39576 ft | 494 kts | 144° |
| 2026-05-05 12:47 | 22.91299 | 37.39159 | 38989 ft | 493 kts | 144° |
| 2026-05-05 12:47 | 22.88810 | 37.41705 | 38426 ft | 492 kts | 145° |
| 2026-05-05 12:48 | 22.86310 | 37.44250 | 37947 ft | 491 kts | 145° |
| 2026-05-05 12:48 | 22.83843 | 37.46759 | 37358 ft | 492 kts | 145° |
| 2026-05-05 12:48 | 22.81346 | 37.49303 | 36662 ft | 492 kts | 144° |
| 2026-05-05 12:48 | 22.78866 | 37.51860 | 35988 ft | 493 kts | 143° |
| 2026-05-05 12:49 | 22.76479 | 37.54527 | 35403 ft | 499 kts | 140° |
| 2026-05-05 12:49 | 22.74171 | 37.57385 | 34778 ft | 506 kts | 136° |
| 2026-05-05 12:49 | 22.72004 | 37.60395 | 34199 ft | 512 kts | 133° |
| 2026-05-05 12:49 | 22.69926 | 37.63535 | 33570 ft | 512 kts | 132° |
| 2026-05-05 12:50 | 22.67900 | 37.66656 | 33133 ft | 509 kts | 132° |
| 2026-05-05 12:50 | 22.65881 | 37.69787 | 32562 ft | 505 kts | 132° |
| 2026-05-05 12:50 | 22.63884 | 37.72872 | 32112 ft | 500 kts | 132° |
| 2026-05-05 12:50 | 22.61902 | 37.75921 | 31540 ft | 497 kts | 132° |
| 2026-05-05 12:51 | 22.59905 | 37.78975 | 31069 ft | 492 kts | 132° |
| 2026-05-05 12:51 | 22.57932 | 37.81985 | 30608 ft | 487 kts | 132° |
| 2026-05-05 12:51 | 22.56000 | 37.84928 | 30141 ft | 483 kts | 132° |
| 2026-05-05 12:51 | 22.54104 | 37.87813 | 29724 ft | 478 kts | 132° |
| 2026-05-05 12:52 | 22.52181 | 37.90734 | 29290 ft | 473 kts | 132° |
| 2026-05-05 12:52 | 22.50296 | 37.93597 | 28871 ft | 469 kts | 132° |
| 2026-05-05 12:52 | 22.48414 | 37.96453 | 28458 ft | 464 kts | 132° |
| 2026-05-05 12:52 | 22.46546 | 37.99287 | 28051 ft | 459 kts | 131° |
| 2026-05-05 12:53 | 22.44698 | 38.02086 | 27651 ft | 454 kts | 131° |
| 2026-05-05 12:53 | 22.42902 | 38.04808 | 27271 ft | 449 kts | 131° |
| 2026-05-05 12:53 | 22.41080 | 38.07567 | 26889 ft | 444 kts | 131° |
| 2026-05-05 12:53 | 22.39315 | 38.10238 | 26513 ft | 439 kts | 131° |
| 2026-05-05 12:54 | 22.35818 | 38.15527 | 25761 ft | 430 kts | 131° |
| 2026-05-05 12:54 | 22.34068 | 38.18173 | 25375 ft | 426 kts | 131° |
| 2026-05-05 12:54 | 22.32368 | 38.20740 | 24997 ft | 422 kts | 130° |
| 2026-05-05 12:55 | 22.30664 | 38.23312 | 24617 ft | 418 kts | 130° |
| 2026-05-05 12:55 | 22.28981 | 38.25852 | 24256 ft | 414 kts | 130° |
| 2026-05-05 12:55 | 22.27333 | 38.28340 | 23905 ft | 410 kts | 130° |
| 2026-05-05 12:55 | 22.25677 | 38.30840 | 23522 ft | 407 kts | 130° |
| 2026-05-05 12:56 | 22.24035 | 38.33315 | 23153 ft | 404 kts | 130° |
| 2026-05-05 12:56 | 22.22400 | 38.35777 | 22791 ft | 400 kts | 129° |
| 2026-05-05 12:56 | 22.20794 | 38.38179 | 22435 ft | 396 kts | 130° |
| 2026-05-05 12:56 | 22.19108 | 38.40553 | 22049 ft | 393 kts | 131° |
| 2026-05-05 12:57 | 22.17445 | 38.42871 | 21692 ft | 390 kts | 131° |
| 2026-05-05 12:57 | 22.15791 | 38.45170 | 21336 ft | 386 kts | 131° |
| 2026-05-05 12:57 | 22.14172 | 38.47420 | 20975 ft | 384 kts | 131° |
| 2026-05-05 12:57 | 22.12528 | 38.49706 | 20618 ft | 381 kts | 131° |
| 2026-05-05 12:58 | 22.10921 | 38.51939 | 20266 ft | 378 kts | 131° |
| 2026-05-05 12:58 | 22.09306 | 38.54181 | 19968 ft | 372 kts | 131° |
| 2026-05-05 12:58 | 22.07766 | 38.56325 | 19903 ft | 358 kts | 131° |
| 2026-05-05 12:58 | 22.06274 | 38.58401 | 19825 ft | 346 kts | 131° |
| 2026-05-05 12:59 | 22.04817 | 38.60426 | 19745 ft | 336 kts | 131° |
| 2026-05-05 12:59 | 22.03389 | 38.62405 | 19669 ft | 331 kts | 131° |
| 2026-05-05 12:59 | 22.01984 | 38.64359 | 19405 ft | 331 kts | 131° |
| 2026-05-05 13:00 | 21.99216 | 38.68253 | 18825 ft | 325 kts | 131° |
| 2026-05-05 13:00 | 21.97834 | 38.70200 | 18537 ft | 323 kts | 131° |
| 2026-05-05 13:01 | 21.93792 | 38.75862 | 17693 ft | 315 kts | 131° |
| 2026-05-05 13:01 | 21.92466 | 38.77714 | 17414 ft | 313 kts | 131° |
| 2026-05-05 13:01 | 21.91131 | 38.79576 | 17132 ft | 310 kts | 131° |
| 2026-05-05 13:01 | 21.89824 | 38.81400 | 16853 ft | 308 kts | 131° |
| 2026-05-05 13:02 | 21.88506 | 38.83226 | 16572 ft | 306 kts | 131° |
| 2026-05-05 13:02 | 21.87206 | 38.85022 | 16297 ft | 304 kts | 131° |
| 2026-05-05 13:02 | 21.85923 | 38.86797 | 16009 ft | 303 kts | 131° |
| 2026-05-05 13:02 | 21.84635 | 38.88586 | 15728 ft | 301 kts | 131° |
| 2026-05-05 13:03 | 21.83343 | 38.90383 | 15440 ft | 299 kts | 131° |
| 2026-05-05 13:03 | 21.82102 | 38.92113 | 15397 ft | 286 kts | 131° |
| 2026-05-05 13:03 | 21.80917 | 38.93765 | 15360 ft | 274 kts | 131° |
| 2026-05-05 13:03 | 21.79777 | 38.95353 | 15314 ft | 263 kts | 131° |
| 2026-05-05 13:04 | 21.78669 | 38.96895 | 15252 ft | 255 kts | 133° |
| 2026-05-05 13:04 | 21.77424 | 38.98198 | 15211 ft | 250 kts | 150° |
| 2026-05-05 13:04 | 21.75881 | 38.99056 | 14964 ft | 247 kts | 162° |
| 2026-05-05 13:04 | 21.74283 | 38.99697 | 14734 ft | 244 kts | 164° |
| 2026-05-05 13:05 | 21.72679 | 39.00318 | 14474 ft | 243 kts | 164° |
| 2026-05-05 13:05 | 21.71095 | 39.00937 | 14259 ft | 243 kts | 163° |
| 2026-05-05 13:05 | 21.69506 | 39.01564 | 14000 ft | 241 kts | 163° |
| 2026-05-05 13:05 | 21.67927 | 39.02194 | 13775 ft | 240 kts | 163° |
| 2026-05-05 13:06 | 21.66357 | 39.02821 | 13551 ft | 239 kts | 163° |
| 2026-05-05 13:06 | 21.64790 | 39.03438 | 13346 ft | 238 kts | 163° |
| 2026-05-05 13:06 | 21.63234 | 39.04048 | 13135 ft | 237 kts | 163° |
| 2026-05-05 13:06 | 21.61683 | 39.04655 | 12959 ft | 236 kts | 163° |
| 2026-05-05 13:07 | 21.60127 | 39.05262 | 12717 ft | 236 kts | 163° |
| 2026-05-05 13:07 | 21.58580 | 39.05867 | 12427 ft | 237 kts | 163° |
| 2026-05-05 13:07 | 21.57005 | 39.06483 | 12191 ft | 236 kts | 163° |
| 2026-05-05 13:07 | 21.55452 | 39.07091 | 11955 ft | 236 kts | 163° |
| 2026-05-05 13:08 | 21.53909 | 39.07695 | 11720 ft | 237 kts | 163° |
| 2026-05-05 13:08 | 21.52360 | 39.08301 | 11510 ft | 237 kts | 162° |
| 2026-05-05 13:08 | 21.50798 | 39.08916 | 11263 ft | 238 kts | 162° |
| 2026-05-05 13:08 | 21.49255 | 39.09526 | 11034 ft | 238 kts | 162° |
| 2026-05-05 13:09 | 21.47677 | 39.10151 | 10800 ft | 239 kts | 162° |
| 2026-05-05 13:09 | 21.46122 | 39.10767 | 10582 ft | 239 kts | 162° |
| 2026-05-05 13:09 | 21.44558 | 39.11385 | 10332 ft | 240 kts | 162° |
| 2026-05-05 13:09 | 21.42992 | 39.12003 | 10082 ft | 239 kts | 161° |
| 2026-05-05 13:10 | 21.41418 | 39.12625 | 10060 ft | 240 kts | 161° |
| 2026-05-05 13:10 | 21.39844 | 39.13250 | 10056 ft | 241 kts | 162° |
| 2026-05-05 13:10 | 21.38278 | 39.13868 | 10030 ft | 241 kts | 161° |
| 2026-05-05 13:10 | 21.36690 | 39.14496 | 10021 ft | 239 kts | 161° |
| 2026-05-05 13:11 | 21.35131 | 39.15112 | 9677 ft | 238 kts | 161° |
| 2026-05-05 13:11 | 21.33587 | 39.15720 | 9292 ft | 240 kts | 161° |
| 2026-05-05 13:11 | 21.31998 | 39.16348 | 8922 ft | 240 kts | 161° |
| 2026-05-05 13:11 | 21.30427 | 39.16969 | 8610 ft | 240 kts | 160° |
| 2026-05-05 13:12 | 21.28873 | 39.17583 | 8219 ft | 239 kts | 160° |
| 2026-05-05 13:12 | 21.27307 | 39.18203 | 7900 ft | 238 kts | 160° |
| 2026-05-05 13:12 | 21.25786 | 39.18873 | 7563 ft | 237 kts | 147° |
| 2026-05-05 13:12 | 21.24734 | 39.20191 | 7188 ft | 234 kts | 108° |
| 2026-05-05 13:13 | 21.24568 | 39.21869 | 6917 ft | 226 kts | 76° |
| 2026-05-05 13:13 | 21.25074 | 39.23427 | 6585 ft | 224 kts | 66° |
| 2026-05-05 13:13 | 21.25661 | 39.24992 | 6166 ft | 226 kts | 66° |
| 2026-05-05 13:13 | 21.26223 | 39.26535 | 5804 ft | 224 kts | 67° |
| 2026-05-05 13:14 | 21.26928 | 39.27996 | 5430 ft | 220 kts | 41° |
| 2026-05-05 13:14 | 21.28229 | 39.28771 | 5205 ft | 212 kts | 9° |
| 2026-05-05 13:14 | 21.29671 | 39.28704 | 4979 ft | 211 kts | 342° |
| 2026-05-05 13:14 | 21.31058 | 39.28149 | 4783 ft | 211 kts | 340° |
| 2026-05-05 13:15 | 21.32426 | 39.27598 | 4571 ft | 211 kts | 340° |
| 2026-05-05 13:15 | 21.33812 | 39.27045 | 4390 ft | 209 kts | 340° |
| 2026-05-05 13:15 | 21.35169 | 39.26506 | 4205 ft | 207 kts | 340° |
| 2026-05-05 13:15 | 21.36524 | 39.25969 | 4038 ft | 206 kts | 340° |
| 2026-05-05 13:16 | 21.37878 | 39.25435 | 3839 ft | 205 kts | 340° |
| 2026-05-05 13:16 | 21.39206 | 39.24912 | 3775 ft | 205 kts | 340° |
| 2026-05-05 13:16 | 21.40545 | 39.24383 | 3752 ft | 204 kts | 340° |
| 2026-05-05 13:16 | 21.41884 | 39.23857 | 3728 ft | 204 kts | 340° |
| 2026-05-05 13:17 | 21.43240 | 39.23331 | 3715 ft | 204 kts | 340° |
| 2026-05-05 13:17 | 21.44571 | 39.22816 | 3573 ft | 204 kts | 340° |
| 2026-05-05 13:17 | 21.45897 | 39.22300 | 3365 ft | 202 kts | 340° |
| 2026-05-05 13:17 | 21.47225 | 39.21781 | 3158 ft | 200 kts | 340° |
| 2026-05-05 13:18 | 21.48497 | 39.21282 | 3108 ft | 189 kts | 340° |
| 2026-05-05 13:18 | 21.49693 | 39.20811 | 3112 ft | 175 kts | 340° |
| 2026-05-05 13:18 | 21.50798 | 39.20374 | 3119 ft | 158 kts | 341° |
| 2026-05-05 13:18 | 21.51777 | 39.19987 | 3051 ft | 149 kts | 341° |
| 2026-05-05 13:19 | 21.52751 | 39.19604 | 2849 ft | 146 kts | 340° |
| 2026-05-05 13:19 | 21.53709 | 39.19227 | 2664 ft | 144 kts | 340° |
| 2026-05-05 13:19 | 21.54648 | 39.18857 | 2479 ft | 142 kts | 340° |
| 2026-05-05 13:19 | 21.55562 | 39.18497 | 2298 ft | 137 kts | 340° |
| 2026-05-05 13:20 | 21.56434 | 39.18152 | 2124 ft | 132 kts | 340° |
| 2026-05-05 13:20 | 21.57298 | 39.17810 | 1962 ft | 131 kts | 340° |
| 2026-05-05 13:20 | 21.58153 | 39.17475 | 1791 ft | 131 kts | 339° |
| 2026-05-05 13:20 | 21.59000 | 39.17140 | 1640 ft | 130 kts | 339° |
| 2026-05-05 13:21 | 21.59859 | 39.16800 | 1474 ft | 130 kts | 340° |
| 2026-05-05 13:21 | 21.60715 | 39.16463 | 1311 ft | 130 kts | 339° |
| 2026-05-05 13:21 | 21.61555 | 39.16131 | 1148 ft | 129 kts | 339° |
| 2026-05-05 13:21 | 21.62402 | 39.15789 | 1004 ft | 129 kts | 339° |
| 2026-05-05 13:22 | 21.63237 | 39.15455 | 848 ft | 128 kts | 340° |
| 2026-05-05 13:22 | 21.64082 | 39.15135 | 668 ft | 128 kts | 339° |
| 2026-05-05 13:22 | 21.64922 | 39.14800 | 502 ft | 128 kts | 339° |
| 2026-05-05 13:22 | 21.65773 | 39.14460 | 342 ft | 129 kts | 339° |
| 2026-05-05 13:23 | 21.66617 | 39.14126 | 202 ft | 130 kts | 339° |
| 2026-05-05 13:23 | 21.67462 | 39.13791 | 62 ft | 126 kts | 338° |
| 2026-05-05 13:23 | 21.68090 | 39.13547 | 61 ft | 65 kts | 342° |
| 2026-05-05 13:23 | 21.68421 | 39.13425 | 60 ft | 37 kts | 351° |
| 2026-05-05 13:24 | 21.68637 | 39.13428 | 60 ft | 17 kts | 8° |
| 2026-05-05 13:24 | 21.68716 | 39.13442 | 60 ft | 6 kts | 9° |
| 2026-05-05 13:24 | 21.68722 | 39.13443 | 60 ft | 0 kts | 9° |
| 2026-05-05 13:27 | 21.68724 | 39.13443 | 60 ft | 1 kts | 9° |
| 2026-05-05 13:28 | 21.68745 | 39.13447 | 60 ft | 5 kts | 8° |
| 2026-05-05 13:28 | 21.68813 | 39.13455 | 60 ft | 12 kts | 4° |
| 2026-05-05 13:28 | 21.68917 | 39.13441 | 60 ft | 17 kts | 339° |
| 2026-05-05 13:28 | 21.69043 | 39.13389 | 60 ft | 20 kts | 339° |
| 2026-05-05 13:29 | 21.69182 | 39.13334 | 60 ft | 21 kts | 340° |
| 2026-05-05 13:29 | 21.69298 | 39.13288 | 60 ft | 7 kts | 339° |
| 2026-05-05 13:29 | 21.69349 | 39.13286 | 60 ft | 8 kts | 27° |
| 2026-05-05 13:29 | 21.69367 | 39.13341 | 60 ft | 8 kts | 111° |
| 2026-05-05 13:30 | 21.69308 | 39.13379 | 61 ft | 11 kts | 160° |
| 2026-05-05 13:30 | 21.69225 | 39.13412 | 60 ft | 13 kts | 159° |
| 2026-05-05 13:30 | 21.69127 | 39.13452 | 60 ft | 15 kts | 159° |
| 2026-05-05 13:30 | 21.69015 | 39.13496 | 61 ft | 18 kts | 160° |
| 2026-05-05 13:31 | 21.68890 | 39.13544 | 60 ft | 20 kts | 160° |
| 2026-05-05 13:31 | 21.68750 | 39.13599 | 61 ft | 22 kts | 160° |
| 2026-05-05 13:31 | 21.68598 | 39.13659 | 61 ft | 24 kts | 159° |
| 2026-05-05 13:31 | 21.68433 | 39.13725 | 61 ft | 26 kts | 160° |
| 2026-05-05 13:32 | 21.68298 | 39.13778 | 61 ft | 10 kts | 160° |
| 2026-05-05 13:32 | 21.68250 | 39.13827 | 61 ft | 10 kts | 97° |
| 2026-05-05 13:32 | 21.68272 | 39.13911 | 61 ft | 12 kts | 70° |
| 2026-05-05 13:32 | 21.68305 | 39.14007 | 61 ft | 14 kts | 70° |
| 2026-05-05 13:33 | 21.68342 | 39.14113 | 61 ft | 16 kts | 69° |
| 2026-05-05 13:33 | 21.68385 | 39.14234 | 61 ft | 18 kts | 69° |
| 2026-05-05 13:33 | 21.68432 | 39.14366 | 61 ft | 19 kts | 68° |
| 2026-05-05 13:33 | 21.68487 | 39.14510 | 61 ft | 21 kts | 67° |
| 2026-05-05 13:34 | 21.68538 | 39.14671 | 61 ft | 23 kts | 72° |
| 2026-05-05 13:34 | 21.68593 | 39.14843 | 61 ft | 25 kts | 70° |
| 2026-05-05 13:34 | 21.68656 | 39.15024 | 61 ft | 27 kts | 70° |
| 2026-05-05 13:34 | 21.68706 | 39.15168 | 61 ft | 12 kts | 70° |
| 2026-05-05 13:35 | 21.68721 | 39.15214 | 61 ft | 3 kts | 70° |
| 2026-05-05 13:35 | 21.68733 | 39.15248 | 61 ft | 5 kts | 70° |
| 2026-05-05 13:35 | 21.68750 | 39.15297 | 61 ft | 8 kts | 69° |
| 2026-05-05 13:35 | 21.68774 | 39.15367 | 61 ft | 11 kts | 69° |
| 2026-05-05 13:36 | 21.68808 | 39.15463 | 61 ft | 15 kts | 69° |
| 2026-05-05 13:36 | 21.68848 | 39.15580 | 61 ft | 17 kts | 69° |
| 2026-05-05 13:36 | 21.68871 | 39.15670 | 61 ft | 8 kts | 101° |
| 2026-05-05 13:36 | 21.68822 | 39.15718 | 61 ft | 11 kts | 155° |
| 2026-05-05 13:37 | 21.68742 | 39.15752 | 61 ft | 13 kts | 159° |
| 2026-05-05 13:37 | 21.68640 | 39.15792 | 61 ft | 16 kts | 160° |
| 2026-05-05 13:37 | 21.68519 | 39.15839 | 61 ft | 19 kts | 159° |
| 2026-05-05 13:37 | 21.68381 | 39.15894 | 61 ft | 22 kts | 160° |
| 2026-05-05 13:38 | 21.68226 | 39.15955 | 61 ft | 25 kts | 160° |
| 2026-05-05 13:38 | 21.68051 | 39.16024 | 61 ft | 27 kts | 159° |
| 2026-05-05 13:38 | 21.67868 | 39.16096 | 61 ft | 29 kts | 160° |
| 2026-05-05 13:38 | 21.67671 | 39.16174 | 61 ft | 30 kts | 159° |
| 2026-05-05 13:39 | 21.67474 | 39.16252 | 61 ft | 30 kts | 159° |
| 2026-05-05 13:39 | 21.67268 | 39.16333 | 61 ft | 31 kts | 159° |
| 2026-05-05 13:39 | 21.67067 | 39.16414 | 61 ft | 30 kts | 160° |
| 2026-05-05 13:39 | 21.66880 | 39.16486 | 61 ft | 27 kts | 160° |
| 2026-05-05 13:40 | 21.66715 | 39.16550 | 61 ft | 21 kts | 160° |
| 2026-05-05 13:40 | 21.66633 | 39.16605 | 61 ft | 12 kts | 108° |
| 2026-05-05 13:40 | 21.66655 | 39.16695 | 61 ft | 13 kts | 67° |
| 2026-05-05 13:40 | 21.66691 | 39.16793 | 62 ft | 14 kts | 69° |
| 2026-05-05 13:41 | 21.66713 | 39.16855 | 62 ft | 3 kts | 70° |
| 2026-05-05 13:41 | 21.66716 | 39.16869 | 62 ft | 2 kts | 82° |
| 2026-05-05 13:41 | 21.66709 | 39.16896 | 62 ft | 5 kts | 119° |
| 2026-05-05 13:41 | 21.66675 | 39.16925 | 62 ft | 7 kts | 157° |
| 2026-05-05 13:42 | 21.66617 | 39.16948 | 62 ft | 9 kts | 159° |
| 2026-05-05 13:42 | 21.66549 | 39.16976 | 62 ft | 11 kts | 159° |
| 2026-05-05 13:42 | 21.66466 | 39.17009 | 62 ft | 13 kts | 160° |
| 2026-05-05 13:42 | 21.66365 | 39.17015 | 62 ft | 15 kts | 191° |
| 2026-05-05 13:43 | 21.66315 | 39.16998 | 62 ft | 4 kts | 201° |
| 2026-05-05 13:43 | 21.66289 | 39.17003 | 62 ft | 5 kts | 144° |
| 2026-05-05 13:43 | 21.66264 | 39.17042 | 62 ft | 6 kts | 118° |
| 2026-05-05 13:43 | 21.66250 | 39.17071 | 62 ft | 0 kts | 117° |
| 2026-05-05 13:44 | 21.66249 | 39.17072 | 62 ft | 0 kts | 117° |